sensor_id;sensor_type;location;lat;lon;timestamp;temperature;humidity
74171;DHT22;62526;50.948;6.590;2022-09-13T00:00:44;17.80;72.50
74171;DHT22;62526;50.948;6.590;2022-09-13T00:03:11;17.70;72.30
74171;DHT22;62526;50.948;6.590;2022-09-13T00:05:37;17.70;72.50
74171;DHT22;62526;50.948;6.590;2022-09-13T00:08:04;17.70;72.50
74171;DHT22;62526;50.948;6.590;2022-09-13T00:10:32;17.70;72.70
74171;DHT22;62526;50.948;6.590;2022-09-13T00:12:57;17.70;72.60
74171;DHT22;62526;50.948;6.590;2022-09-13T00:15:24;17.70;72.40
74171;DHT22;62526;50.948;6.590;2022-09-13T00:17:50;17.70;72.50
74171;DHT22;62526;50.948;6.590;2022-09-13T00:20:17;17.70;72.50
74171;DHT22;62526;50.948;6.590;2022-09-13T00:22:44;17.80;72.40
74171;DHT22;62526;50.948;6.590;2022-09-13T00:25:11;17.80;72.40
74171;DHT22;62526;50.948;6.590;2022-09-13T00:27:38;17.80;72.40
74171;DHT22;62526;50.948;6.590;2022-09-13T00:30:06;17.80;72.70
74171;DHT22;62526;50.948;6.590;2022-09-13T00:32:33;17.80;72.60
74171;DHT22;62526;50.948;6.590;2022-09-13T00:34:59;17.80;72.40
74171;DHT22;62526;50.948;6.590;2022-09-13T00:37:26;17.70;72.40
74171;DHT22;62526;50.948;6.590;2022-09-13T00:39:53;17.70;72.50
74171;DHT22;62526;50.948;6.590;2022-09-13T00:42:27;17.70;72.70
74171;DHT22;62526;50.948;6.590;2022-09-13T00:44:56;17.70;72.90
74171;DHT22;62526;50.948;6.590;2022-09-13T00:50:16;17.70;74.00
74171;DHT22;62526;50.948;6.590;2022-09-13T00:52:41;17.70;73.90
74171;DHT22;62526;50.948;6.590;2022-09-13T00:55:11;17.60;73.50
74171;DHT22;62526;50.948;6.590;2022-09-13T00:57:36;17.60;73.70
74171;DHT22;62526;50.948;6.590;2022-09-13T01:00:09;17.60;73.80
74171;DHT22;62526;50.948;6.590;2022-09-13T01:02:39;17.50;73.90
74171;DHT22;62526;50.948;6.590;2022-09-13T01:05:05;17.50;73.90
74171;DHT22;62526;50.948;6.590;2022-09-13T01:07:32;17.50;73.90
74171;DHT22;62526;50.948;6.590;2022-09-13T01:09:59;17.50;73.90
74171;DHT22;62526;50.948;6.590;2022-09-13T01:12:37;17.50;73.80
74171;DHT22;62526;50.948;6.590;2022-09-13T01:15:03;17.50;74.10
74171;DHT22;62526;50.948;6.590;2022-09-13T01:17:29;17.40;74.10
74171;DHT22;62526;50.948;6.590;2022-09-13T01:19:55;17.40;74.10
74171;DHT22;62526;50.948;6.590;2022-09-13T01:22:39;17.40;74.20
74171;DHT22;62526;50.948;6.590;2022-09-13T01:25:11;17.40;74.20
74171;DHT22;62526;50.948;6.590;2022-09-13T01:27:57;17.30;74.20
74171;DHT22;62526;50.948;6.590;2022-09-13T01:30:21;17.30;75.10
74171;DHT22;62526;50.948;6.590;2022-09-13T01:33:03;17.30;74.40
74171;DHT22;62526;50.948;6.590;2022-09-13T01:35:58;17.30;74.60
74171;DHT22;62526;50.948;6.590;2022-09-13T01:42:27;17.30;75.10
74171;DHT22;62526;50.948;6.590;2022-09-13T01:44:11;17.20;75.40
74171;DHT22;62526;50.948;6.590;2022-09-13T01:46:59;17.20;75.80
74171;DHT22;62526;50.948;6.590;2022-09-13T01:49:24;17.10;76.20
74171;DHT22;62526;50.948;6.590;2022-09-13T01:51:52;17.10;76.30
74171;DHT22;62526;50.948;6.590;2022-09-13T01:54:30;17.10;76.30
74171;DHT22;62526;50.948;6.590;2022-09-13T01:59:47;17.00;76.50
74171;DHT22;62526;50.948;6.590;2022-09-13T02:02:15;17.00;76.60
74171;DHT22;62526;50.948;6.590;2022-09-13T02:04:45;17.00;76.80
74171;DHT22;62526;50.948;6.590;2022-09-13T02:07:15;16.90;76.80
74171;DHT22;62526;50.948;6.590;2022-09-13T02:09:41;16.90;77.10
74171;DHT22;62526;50.948;6.590;2022-09-13T02:12:10;16.90;77.40
74171;DHT22;62526;50.948;6.590;2022-09-13T02:14:37;17.00;77.50
74171;DHT22;62526;50.948;6.590;2022-09-13T02:17:06;17.00;77.80
74171;DHT22;62526;50.948;6.590;2022-09-13T02:19:37;17.00;77.70
74171;DHT22;62526;50.948;6.590;2022-09-13T02:22:02;17.10;77.60
74171;DHT22;62526;50.948;6.590;2022-09-13T02:24:31;17.10;77.30
74171;DHT22;62526;50.948;6.590;2022-09-13T02:26:57;17.10;77.20
74171;DHT22;62526;50.948;6.590;2022-09-13T02:29:23;17.10;77.20
74171;DHT22;62526;50.948;6.590;2022-09-13T02:31:57;17.10;77.30
74171;DHT22;62526;50.948;6.590;2022-09-13T02:34:22;17.20;77.70
74171;DHT22;62526;50.948;6.590;2022-09-13T02:36:48;17.20;77.60
74171;DHT22;62526;50.948;6.590;2022-09-13T02:39:15;17.20;77.80
74171;DHT22;62526;50.948;6.590;2022-09-13T02:41:51;17.20;77.80
74171;DHT22;62526;50.948;6.590;2022-09-13T02:44:36;17.20;77.60
74171;DHT22;62526;50.948;6.590;2022-09-13T02:47:13;17.30;77.70
74171;DHT22;62526;50.948;6.590;2022-09-13T02:52:31;17.30;77.80
74171;DHT22;62526;50.948;6.590;2022-09-13T02:55:04;17.30;78.00
74171;DHT22;62526;50.948;6.590;2022-09-13T02:57:28;17.40;78.20
74171;DHT22;62526;50.948;6.590;2022-09-13T02:59:54;17.40;78.20
74171;DHT22;62526;50.948;6.590;2022-09-13T03:02:21;17.40;78.20
74171;DHT22;62526;50.948;6.590;2022-09-13T03:04:49;17.40;78.40
74171;DHT22;62526;50.948;6.590;2022-09-13T03:07:14;17.40;78.30
74171;DHT22;62526;50.948;6.590;2022-09-13T03:09:45;17.40;78.30
74171;DHT22;62526;50.948;6.590;2022-09-13T03:12:31;17.40;78.40
74171;DHT22;62526;50.948;6.590;2022-09-13T03:15:39;17.40;78.00
74171;DHT22;62526;50.948;6.590;2022-09-13T03:21:05;17.40;77.60
74171;DHT22;62526;50.948;6.590;2022-09-13T03:26:19;17.40;77.30
74171;DHT22;62526;50.948;6.590;2022-09-13T03:29:03;17.40;77.10
74171;DHT22;62526;50.948;6.590;2022-09-13T03:31:37;17.50;77.10
74171;DHT22;62526;50.948;6.590;2022-09-13T03:34:11;17.50;76.80
74171;DHT22;62526;50.948;6.590;2022-09-13T03:36:41;17.50;76.90
74171;DHT22;62526;50.948;6.590;2022-09-13T03:39:21;17.50;76.90
74171;DHT22;62526;50.948;6.590;2022-09-13T03:41:45;17.60;76.70
74171;DHT22;62526;50.948;6.590;2022-09-13T03:44:11;17.60;76.80
74171;DHT22;62526;50.948;6.590;2022-09-13T03:46:39;17.60;76.70
74171;DHT22;62526;50.948;6.590;2022-09-13T03:49:08;17.60;76.20
74171;DHT22;62526;50.948;6.590;2022-09-13T03:51:34;17.60;75.70
74171;DHT22;62526;50.948;6.590;2022-09-13T03:54:01;17.60;75.80
74171;DHT22;62526;50.948;6.590;2022-09-13T03:56:28;17.60;76.10
74171;DHT22;62526;50.948;6.590;2022-09-13T03:58:54;17.60;76.20
74171;DHT22;62526;50.948;6.590;2022-09-13T04:01:22;17.70;76.30
74171;DHT22;62526;50.948;6.590;2022-09-13T04:03:48;17.70;76.10
74171;DHT22;62526;50.948;6.590;2022-09-13T04:06:14;17.70;76.20
74171;DHT22;62526;50.948;6.590;2022-09-13T04:08:41;17.70;76.30
74171;DHT22;62526;50.948;6.590;2022-09-13T04:11:07;17.80;76.60
74171;DHT22;62526;50.948;6.590;2022-09-13T04:13:34;17.80;76.50
74171;DHT22;62526;50.948;6.590;2022-09-13T04:16:01;17.80;77.10
74171;DHT22;62526;50.948;6.590;2022-09-13T04:18:28;17.80;76.60
74171;DHT22;62526;50.948;6.590;2022-09-13T04:20:55;17.80;76.60
74171;DHT22;62526;50.948;6.590;2022-09-13T04:23:21;17.70;76.70
74171;DHT22;62526;50.948;6.590;2022-09-13T04:25:48;17.70;77.00
74171;DHT22;62526;50.948;6.590;2022-09-13T04:28:15;17.80;77.10
74171;DHT22;62526;50.948;6.590;2022-09-13T04:30:44;17.80;77.10
74171;DHT22;62526;50.948;6.590;2022-09-13T04:33:10;17.80;76.90
74171;DHT22;62526;50.948;6.590;2022-09-13T04:35:37;17.80;77.00
74171;DHT22;62526;50.948;6.590;2022-09-13T04:38:04;17.80;77.10
74171;DHT22;62526;50.948;6.590;2022-09-13T04:40:30;17.80;77.50
74171;DHT22;62526;50.948;6.590;2022-09-13T04:42:56;17.80;77.80
74171;DHT22;62526;50.948;6.590;2022-09-13T04:45:23;17.80;77.60
74171;DHT22;62526;50.948;6.590;2022-09-13T04:47:51;17.90;77.80
74171;DHT22;62526;50.948;6.590;2022-09-13T04:50:16;17.80;78.20
74171;DHT22;62526;50.948;6.590;2022-09-13T04:52:43;17.80;78.40
74171;DHT22;62526;50.948;6.590;2022-09-13T04:55:09;17.80;78.70
74171;DHT22;62526;50.948;6.590;2022-09-13T04:57:36;17.80;78.80
74171;DHT22;62526;50.948;6.590;2022-09-13T05:00:04;17.80;78.80
74171;DHT22;62526;50.948;6.590;2022-09-13T05:02:31;17.80;79.00
74171;DHT22;62526;50.948;6.590;2022-09-13T05:04:57;17.80;79.10
74171;DHT22;62526;50.948;6.590;2022-09-13T05:07:24;17.80;79.10
74171;DHT22;62526;50.948;6.590;2022-09-13T05:09:50;17.80;79.30
74171;DHT22;62526;50.948;6.590;2022-09-13T05:12:17;17.80;79.50
74171;DHT22;62526;50.948;6.590;2022-09-13T05:14:44;17.80;79.70
74171;DHT22;62526;50.948;6.590;2022-09-13T05:17:11;17.90;79.90
74171;DHT22;62526;50.948;6.590;2022-09-13T05:19:38;17.90;80.00
74171;DHT22;62526;50.948;6.590;2022-09-13T05:22:05;17.90;80.30
74171;DHT22;62526;50.948;6.590;2022-09-13T05:24:32;17.90;80.60
74171;DHT22;62526;50.948;6.590;2022-09-13T05:26:58;17.90;80.30
74171;DHT22;62526;50.948;6.590;2022-09-13T05:29:25;18.00;80.50
74171;DHT22;62526;50.948;6.590;2022-09-13T05:31:52;17.90;79.90
74171;DHT22;62526;50.948;6.590;2022-09-13T05:34:19;17.90;79.80
74171;DHT22;62526;50.948;6.590;2022-09-13T05:36:45;17.90;79.40
74171;DHT22;62526;50.948;6.590;2022-09-13T05:39:13;18.00;79.10
74171;DHT22;62526;50.948;6.590;2022-09-13T05:41:40;18.00;78.70
74171;DHT22;62526;50.948;6.590;2022-09-13T05:44:06;18.00;78.50
74171;DHT22;62526;50.948;6.590;2022-09-13T05:46:33;18.10;78.40
74171;DHT22;62526;50.948;6.590;2022-09-13T05:49:00;18.10;78.40
74171;DHT22;62526;50.948;6.590;2022-09-13T05:51:26;18.10;78.40
74171;DHT22;62526;50.948;6.590;2022-09-13T05:53:53;18.10;78.00
74171;DHT22;62526;50.948;6.590;2022-09-13T05:56:22;18.10;77.80
74171;DHT22;62526;50.948;6.590;2022-09-13T05:58:49;18.10;77.80
74171;DHT22;62526;50.948;6.590;2022-09-13T06:01:16;18.10;77.80
74171;DHT22;62526;50.948;6.590;2022-09-13T06:03:42;18.20;77.70
74171;DHT22;62526;50.948;6.590;2022-09-13T06:06:09;18.20;77.60
74171;DHT22;62526;50.948;6.590;2022-09-13T06:08:35;18.30;77.30
74171;DHT22;62526;50.948;6.590;2022-09-13T06:11:03;18.30;77.10
74171;DHT22;62526;50.948;6.590;2022-09-13T06:13:28;18.40;77.30
74171;DHT22;62526;50.948;6.590;2022-09-13T06:15:55;18.40;77.10
74171;DHT22;62526;50.948;6.590;2022-09-13T06:18:22;18.40;76.80
74171;DHT22;62526;50.948;6.590;2022-09-13T06:20:49;18.40;76.50
74171;DHT22;62526;50.948;6.590;2022-09-13T06:23:15;18.40;76.50
74171;DHT22;62526;50.948;6.590;2022-09-13T06:25:42;18.50;76.80
74171;DHT22;62526;50.948;6.590;2022-09-13T06:28:09;18.50;77.00
74171;DHT22;62526;50.948;6.590;2022-09-13T06:30:36;18.60;77.50
74171;DHT22;62526;50.948;6.590;2022-09-13T06:33:03;18.60;77.40
74171;DHT22;62526;50.948;6.590;2022-09-13T06:35:30;18.60;77.30
74171;DHT22;62526;50.948;6.590;2022-09-13T06:37:57;18.70;76.90
74171;DHT22;62526;50.948;6.590;2022-09-13T06:40:24;18.70;76.70
74171;DHT22;62526;50.948;6.590;2022-09-13T06:42:50;18.70;76.20
74171;DHT22;62526;50.948;6.590;2022-09-13T06:45:16;18.80;75.90
74171;DHT22;62526;50.948;6.590;2022-09-13T06:47:43;18.90;76.00
74171;DHT22;62526;50.948;6.590;2022-09-13T06:50:10;19.00;75.80
74171;DHT22;62526;50.948;6.590;2022-09-13T06:52:36;19.00;75.80
74171;DHT22;62526;50.948;6.590;2022-09-13T06:55:03;19.10;75.60
74171;DHT22;62526;50.948;6.590;2022-09-13T06:57:30;19.20;75.60
74171;DHT22;62526;50.948;6.590;2022-09-13T06:59:56;19.20;75.10
74171;DHT22;62526;50.948;6.590;2022-09-13T07:02:23;19.30;75.60
74171;DHT22;62526;50.948;6.590;2022-09-13T07:04:50;19.30;75.70
74171;DHT22;62526;50.948;6.590;2022-09-13T07:07:16;19.40;75.60
74171;DHT22;62526;50.948;6.590;2022-09-13T07:09:44;19.50;75.50
74171;DHT22;62526;50.948;6.590;2022-09-13T07:12:10;19.50;75.30
74171;DHT22;62526;50.948;6.590;2022-09-13T07:14:37;19.60;75.00
74171;DHT22;62526;50.948;6.590;2022-09-13T07:17:03;19.70;75.10
74171;DHT22;62526;50.948;6.590;2022-09-13T07:19:30;19.80;75.10
74171;DHT22;62526;50.948;6.590;2022-09-13T07:21:58;19.80;74.90
74171;DHT22;62526;50.948;6.590;2022-09-13T07:24:25;19.80;74.90
74171;DHT22;62526;50.948;6.590;2022-09-13T07:26:52;19.90;74.80
74171;DHT22;62526;50.948;6.590;2022-09-13T07:29:19;20.00;74.50
74171;DHT22;62526;50.948;6.590;2022-09-13T07:31:46;20.10;74.10
74171;DHT22;62526;50.948;6.590;2022-09-13T07:34:14;20.20;73.80
74171;DHT22;62526;50.948;6.590;2022-09-13T07:36:40;20.20;73.90
74171;DHT22;62526;50.948;6.590;2022-09-13T07:39:07;20.40;74.00
74171;DHT22;62526;50.948;6.590;2022-09-13T07:41:34;20.40;73.80
74171;DHT22;62526;50.948;6.590;2022-09-13T07:44:00;20.50;73.70
74171;DHT22;62526;50.948;6.590;2022-09-13T07:46:28;20.60;73.20
74171;DHT22;62526;50.948;6.590;2022-09-13T07:48:54;20.70;73.90
74171;DHT22;62526;50.948;6.590;2022-09-13T07:51:21;20.80;72.90
74171;DHT22;62526;50.948;6.590;2022-09-13T07:53:47;20.90;73.00
74171;DHT22;62526;50.948;6.590;2022-09-13T07:56:18;21.00;72.00
74171;DHT22;62526;50.948;6.590;2022-09-13T07:58:44;21.10;71.50
74171;DHT22;62526;50.948;6.590;2022-09-13T08:01:14;21.20;70.50
74171;DHT22;62526;50.948;6.590;2022-09-13T08:03:40;21.30;69.40
74171;DHT22;62526;50.948;6.590;2022-09-13T08:06:07;21.60;68.70
74171;DHT22;62526;50.948;6.590;2022-09-13T08:08:34;21.60;68.60
74171;DHT22;62526;50.948;6.590;2022-09-13T08:11:01;21.70;68.60
74171;DHT22;62526;50.948;6.590;2022-09-13T08:13:27;21.80;68.70
74171;DHT22;62526;50.948;6.590;2022-09-13T08:15:54;21.90;68.20
74171;DHT22;62526;50.948;6.590;2022-09-13T08:18:21;22.10;67.60
74171;DHT22;62526;50.948;6.590;2022-09-13T08:20:48;22.20;66.80
74171;DHT22;62526;50.948;6.590;2022-09-13T08:23:15;22.30;66.90
74171;DHT22;62526;50.948;6.590;2022-09-13T08:25:41;22.40;66.70
74171;DHT22;62526;50.948;6.590;2022-09-13T08:28:09;22.40;66.50
74171;DHT22;62526;50.948;6.590;2022-09-13T08:30:35;22.40;65.80
74171;DHT22;62526;50.948;6.590;2022-09-13T08:33:03;22.50;65.80
74171;DHT22;62526;50.948;6.590;2022-09-13T08:35:29;22.50;64.50
74171;DHT22;62526;50.948;6.590;2022-09-13T08:37:55;22.60;63.80
74171;DHT22;62526;50.948;6.590;2022-09-13T08:40:23;22.70;63.90
74171;DHT22;62526;50.948;6.590;2022-09-13T08:42:53;22.80;63.20
74171;DHT22;62526;50.948;6.590;2022-09-13T08:45:19;22.90;62.20
74171;DHT22;62526;50.948;6.590;2022-09-13T08:47:46;23.10;60.80
74171;DHT22;62526;50.948;6.590;2022-09-13T08:50:25;23.10;59.60
74171;DHT22;62526;50.948;6.590;2022-09-13T08:52:56;23.00;60.20
74171;DHT22;62526;50.948;6.590;2022-09-13T08:55:24;23.00;59.90
74171;DHT22;62526;50.948;6.590;2022-09-13T09:00:37;23.20;60.90
74171;DHT22;62526;50.948;6.590;2022-09-13T09:03:15;23.40;60.80
74171;DHT22;62526;50.948;6.590;2022-09-13T09:05:44;23.50;61.10
74171;DHT22;62526;50.948;6.590;2022-09-13T09:08:13;23.50;59.30
74171;DHT22;62526;50.948;6.590;2022-09-13T09:10:44;23.50;59.10
74171;DHT22;62526;50.948;6.590;2022-09-13T09:13:29;23.50;59.90
74171;DHT22;62526;50.948;6.590;2022-09-13T09:15:59;23.50;60.00
74171;DHT22;62526;50.948;6.590;2022-09-13T09:18:35;23.60;60.10
74171;DHT22;62526;50.948;6.590;2022-09-13T09:21:01;23.70;59.70
74171;DHT22;62526;50.948;6.590;2022-09-13T09:23:37;23.80;59.90
74171;DHT22;62526;50.948;6.590;2022-09-13T09:26:15;23.90;59.30
74171;DHT22;62526;50.948;6.590;2022-09-13T09:28:40;24.00;59.70
74171;DHT22;62526;50.948;6.590;2022-09-13T09:31:14;24.10;59.10
74171;DHT22;62526;50.948;6.590;2022-09-13T09:33:47;24.20;58.60
74171;DHT22;62526;50.948;6.590;2022-09-13T09:36:20;24.10;58.70
74171;DHT22;62526;50.948;6.590;2022-09-13T09:38:43;24.00;58.80
74171;DHT22;62526;50.948;6.590;2022-09-13T09:41:29;24.10;58.80
74171;DHT22;62526;50.948;6.590;2022-09-13T09:43:58;24.20;58.50
74171;DHT22;62526;50.948;6.590;2022-09-13T09:46:23;24.30;58.00
74171;DHT22;62526;50.948;6.590;2022-09-13T09:48:51;24.40;57.80
74171;DHT22;62526;50.948;6.590;2022-09-13T09:51:16;24.40;57.50
74171;DHT22;62526;50.948;6.590;2022-09-13T09:53:44;24.40;57.30
74171;DHT22;62526;50.948;6.590;2022-09-13T09:56:20;24.50;57.30
74171;DHT22;62526;50.948;6.590;2022-09-13T09:58:47;24.60;56.90
74171;DHT22;62526;50.948;6.590;2022-09-13T10:01:19;24.70;55.90
74171;DHT22;62526;50.948;6.590;2022-09-13T10:03:50;24.80;56.10
74171;DHT22;62526;50.948;6.590;2022-09-13T10:06:18;24.90;56.40
74171;DHT22;62526;50.948;6.590;2022-09-13T10:08:47;25.00;56.90
74171;DHT22;62526;50.948;6.590;2022-09-13T10:11:11;25.20;56.80
74171;DHT22;62526;50.948;6.590;2022-09-13T10:13:38;25.20;56.80
74171;DHT22;62526;50.948;6.590;2022-09-13T10:16:05;25.30;55.10
74171;DHT22;62526;50.948;6.590;2022-09-13T10:18:33;25.40;55.40
74171;DHT22;62526;50.948;6.590;2022-09-13T10:21:07;25.50;54.30
74171;DHT22;62526;50.948;6.590;2022-09-13T10:23:33;25.60;54.30
74171;DHT22;62526;50.948;6.590;2022-09-13T10:26:11;25.70;53.60
74171;DHT22;62526;50.948;6.590;2022-09-13T10:28:42;25.90;54.00
74171;DHT22;62526;50.948;6.590;2022-09-13T10:31:09;26.10;53.90
74171;DHT22;62526;50.948;6.590;2022-09-13T10:33:40;26.40;53.10
74171;DHT22;62526;50.948;6.590;2022-09-13T10:36:42;26.50;52.30
74171;DHT22;62526;50.948;6.590;2022-09-13T10:38:51;26.60;51.90
74171;DHT22;62526;50.948;6.590;2022-09-13T10:41:20;26.70;51.70
74171;DHT22;62526;50.948;6.590;2022-09-13T10:43:45;26.90;51.70
74171;DHT22;62526;50.948;6.590;2022-09-13T10:46:12;27.00;51.30
74171;DHT22;62526;50.948;6.590;2022-09-13T10:48:44;27.10;51.00
74171;DHT22;62526;50.948;6.590;2022-09-13T10:51:20;27.10;51.10
74171;DHT22;62526;50.948;6.590;2022-09-13T10:53:45;27.20;50.90
74171;DHT22;62526;50.948;6.590;2022-09-13T10:56:20;27.30;50.90
74171;DHT22;62526;50.948;6.590;2022-09-13T10:58:45;27.40;50.90
74171;DHT22;62526;50.948;6.590;2022-09-13T11:01:16;27.40;50.60
74171;DHT22;62526;50.948;6.590;2022-09-13T11:06:24;27.40;49.00
74171;DHT22;62526;50.948;6.590;2022-09-13T11:09:00;27.30;49.40
74171;DHT22;62526;50.948;6.590;2022-09-13T11:11:36;27.50;49.60
74171;DHT22;62526;50.948;6.590;2022-09-13T11:14:08;27.60;49.60
74171;DHT22;62526;50.948;6.590;2022-09-13T11:16:40;27.70;49.60
74171;DHT22;62526;50.948;6.590;2022-09-13T11:27:48;28.30;48.20
74171;DHT22;62526;50.948;6.590;2022-09-13T11:30:20;28.60;47.40
74171;DHT22;62526;50.948;6.590;2022-09-13T11:35:44;29.00;45.50
74171;DHT22;62526;50.948;6.590;2022-09-13T11:38:19;28.90;45.80
74171;DHT22;62526;50.948;6.590;2022-09-13T11:40:51;28.70;46.80
74171;DHT22;62526;50.948;6.590;2022-09-13T11:43:29;28.80;47.50
74171;DHT22;62526;50.948;6.590;2022-09-13T11:49:00;29.00;44.70
74171;DHT22;62526;50.948;6.590;2022-09-13T11:54:35;28.50;44.80
74171;DHT22;62526;50.948;6.590;2022-09-13T11:57:00;28.40;45.60
74171;DHT22;62526;50.948;6.590;2022-09-13T11:59:42;28.40;46.40
74171;DHT22;62526;50.948;6.590;2022-09-13T12:02:29;28.40;46.50
74171;DHT22;62526;50.948;6.590;2022-09-13T12:04:57;28.40;46.20
74171;DHT22;62526;50.948;6.590;2022-09-13T12:07:30;28.40;45.50
74171;DHT22;62526;50.948;6.590;2022-09-13T12:09:58;28.40;45.50
74171;DHT22;62526;50.948;6.590;2022-09-13T12:12:22;28.70;46.00
74171;DHT22;62526;50.948;6.590;2022-09-13T12:14:52;29.20;45.20
74171;DHT22;62526;50.948;6.590;2022-09-13T12:17:34;29.60;43.80
74171;DHT22;62526;50.948;6.590;2022-09-13T12:19:58;29.70;43.20
74171;DHT22;62526;50.948;6.590;2022-09-13T12:22:26;29.70;43.20
74171;DHT22;62526;50.948;6.590;2022-09-13T12:24:53;29.90;42.30
74171;DHT22;62526;50.948;6.590;2022-09-13T12:27:23;30.40;42.00
74171;DHT22;62526;50.948;6.590;2022-09-13T12:29:50;30.80;41.30
74171;DHT22;62526;50.948;6.590;2022-09-13T12:32:16;31.20;40.10
74171;DHT22;62526;50.948;6.590;2022-09-13T12:34:44;31.30;39.70
74171;DHT22;62526;50.948;6.590;2022-09-13T12:37:19;31.20;39.80
74171;DHT22;62526;50.948;6.590;2022-09-13T12:39:51;31.10;40.00
74171;DHT22;62526;50.948;6.590;2022-09-13T12:42:24;31.30;40.10
74171;DHT22;62526;50.948;6.590;2022-09-13T12:47:53;32.20;38.80
74171;DHT22;62526;50.948;6.590;2022-09-13T12:55:59;33.50;36.80
74171;DHT22;62526;50.948;6.590;2022-09-13T12:58:32;34.00;35.40
74171;DHT22;62526;50.948;6.590;2022-09-13T13:01:03;34.50;34.90
74171;DHT22;62526;50.948;6.590;2022-09-13T13:03:28;34.60;34.40
74171;DHT22;62526;50.948;6.590;2022-09-13T13:06:10;34.80;34.40
74171;DHT22;62526;50.948;6.590;2022-09-13T13:08:36;34.80;33.90
74171;DHT22;62526;50.948;6.590;2022-09-13T13:11:11;34.70;33.90
74171;DHT22;62526;50.948;6.590;2022-09-13T13:13:45;34.30;34.30
74171;DHT22;62526;50.948;6.590;2022-09-13T13:16:23;34.30;34.20
74171;DHT22;62526;50.948;6.590;2022-09-13T13:18:49;33.80;35.40
74171;DHT22;62526;50.948;6.590;2022-09-13T13:21:23;33.30;36.50
74171;DHT22;62526;50.948;6.590;2022-09-13T13:24:04;32.70;36.80
74171;DHT22;62526;50.948;6.590;2022-09-13T13:29:14;32.00;38.60
74171;DHT22;62526;50.948;6.590;2022-09-13T13:32:11;31.90;39.50
74171;DHT22;62526;50.948;6.590;2022-09-13T13:34:26;32.10;39.00
74171;DHT22;62526;50.948;6.590;2022-09-13T13:36:58;32.50;37.90
74171;DHT22;62526;50.948;6.590;2022-09-13T13:39:41;33.00;37.40
74171;DHT22;62526;50.948;6.590;2022-09-13T13:42:21;32.70;37.40
74171;DHT22;62526;50.948;6.590;2022-09-13T13:44:56;33.20;37.00
74171;DHT22;62526;50.948;6.590;2022-09-13T13:47:40;34.10;35.30
74171;DHT22;62526;50.948;6.590;2022-09-13T13:50:16;34.90;34.10
74171;DHT22;62526;50.948;6.590;2022-09-13T13:52:56;35.20;33.80
74171;DHT22;62526;50.948;6.590;2022-09-13T13:55:37;35.30;33.40
74171;DHT22;62526;50.948;6.590;2022-09-13T13:57:59;35.50;33.30
74171;DHT22;62526;50.948;6.590;2022-09-13T14:00:27;35.70;33.50
74171;DHT22;62526;50.948;6.590;2022-09-13T14:03:05;35.60;32.80
74171;DHT22;62526;50.948;6.590;2022-09-13T14:05:29;35.40;33.30
74171;DHT22;62526;50.948;6.590;2022-09-13T14:10:48;34.20;34.80
74171;DHT22;62526;50.948;6.590;2022-09-13T14:13:18;33.80;36.30
74171;DHT22;62526;50.948;6.590;2022-09-13T14:18:52;34.10;36.00
74171;DHT22;62526;50.948;6.590;2022-09-13T14:21:25;34.20;35.30
74171;DHT22;62526;50.948;6.590;2022-09-13T14:26:24;35.10;34.20
74171;DHT22;62526;50.948;6.590;2022-09-13T14:28:51;35.80;33.10
74171;DHT22;62526;50.948;6.590;2022-09-13T14:31:17;35.90;32.80
74171;DHT22;62526;50.948;6.590;2022-09-13T14:33:44;35.90;32.90
74171;DHT22;62526;50.948;6.590;2022-09-13T14:36:17;36.20;32.40
74171;DHT22;62526;50.948;6.590;2022-09-13T14:38:48;37.00;31.30
74171;DHT22;62526;50.948;6.590;2022-09-13T14:41:14;37.10;30.30
74171;DHT22;62526;50.948;6.590;2022-09-13T14:43:40;37.20;31.10
74171;DHT22;62526;50.948;6.590;2022-09-13T14:46:09;36.80;31.30
74171;DHT22;62526;50.948;6.590;2022-09-13T14:48:41;36.30;31.90
74171;DHT22;62526;50.948;6.590;2022-09-13T14:51:14;35.60;32.30
74171;DHT22;62526;50.948;6.590;2022-09-13T14:53:39;34.50;34.20
74171;DHT22;62526;50.948;6.590;2022-09-13T14:56:07;33.60;35.50
74171;DHT22;62526;50.948;6.590;2022-09-13T14:58:45;33.10;36.70
74171;DHT22;62526;50.948;6.590;2022-09-13T15:01:11;33.30;36.90
74171;DHT22;62526;50.948;6.590;2022-09-13T15:03:39;33.40;37.10
74171;DHT22;62526;50.948;6.590;2022-09-13T15:06:03;33.00;38.20
74171;DHT22;62526;50.948;6.590;2022-09-13T15:08:42;32.00;38.90
74171;DHT22;62526;50.948;6.590;2022-09-13T15:11:11;31.20;40.70
74171;DHT22;62526;50.948;6.590;2022-09-13T15:13:34;30.40;43.00
74171;DHT22;62526;50.948;6.590;2022-09-13T15:16:01;29.70;44.00
74171;DHT22;62526;50.948;6.590;2022-09-13T15:18:29;29.30;45.20
74171;DHT22;62526;50.948;6.590;2022-09-13T15:20:57;28.90;45.80
74171;DHT22;62526;50.948;6.590;2022-09-13T15:23:28;28.50;47.10
74171;DHT22;62526;50.948;6.590;2022-09-13T15:25:55;28.20;48.30
74171;DHT22;62526;50.948;6.590;2022-09-13T15:28:22;28.00;50.30
74171;DHT22;62526;50.948;6.590;2022-09-13T15:30:48;27.70;51.50
74171;DHT22;62526;50.948;6.590;2022-09-13T15:33:21;27.50;51.80
74171;DHT22;62526;50.948;6.590;2022-09-13T15:35:45;27.40;52.50
74171;DHT22;62526;50.948;6.590;2022-09-13T15:38:23;27.10;53.30
74171;DHT22;62526;50.948;6.590;2022-09-13T15:40:59;27.00;53.80
74171;DHT22;62526;50.948;6.590;2022-09-13T15:43:25;26.80;54.30
74171;DHT22;62526;50.948;6.590;2022-09-13T15:45:51;26.70;55.10
74171;DHT22;62526;50.948;6.590;2022-09-13T15:48:21;26.60;55.40
74171;DHT22;62526;50.948;6.590;2022-09-13T15:50:44;26.50;55.90
74171;DHT22;62526;50.948;6.590;2022-09-13T15:53:11;26.40;56.40
74171;DHT22;62526;50.948;6.590;2022-09-13T15:55:38;26.40;56.80
74171;DHT22;62526;50.948;6.590;2022-09-13T15:58:05;26.30;56.90
74171;DHT22;62526;50.948;6.590;2022-09-13T16:00:31;26.20;56.60
74171;DHT22;62526;50.948;6.590;2022-09-13T16:02:58;26.10;57.00
74171;DHT22;62526;50.948;6.590;2022-09-13T16:05:25;26.00;58.10
74171;DHT22;62526;50.948;6.590;2022-09-13T16:07:52;25.90;57.80
74171;DHT22;62526;50.948;6.590;2022-09-13T16:10:19;25.80;58.00
74171;DHT22;62526;50.948;6.590;2022-09-13T16:12:45;25.70;58.60
74171;DHT22;62526;50.948;6.590;2022-09-13T16:15:12;25.60;58.80
74171;DHT22;62526;50.948;6.590;2022-09-13T16:17:39;25.60;59.40
74171;DHT22;62526;50.948;6.590;2022-09-13T16:20:06;25.50;59.70
74171;DHT22;62526;50.948;6.590;2022-09-13T16:22:33;25.50;60.50
74171;DHT22;62526;50.948;6.590;2022-09-13T16:24:59;25.30;61.60
74171;DHT22;62526;50.948;6.590;2022-09-13T16:27:26;25.30;62.60
74171;DHT22;62526;50.948;6.590;2022-09-13T16:29:53;25.10;63.50
74171;DHT22;62526;50.948;6.590;2022-09-13T16:32:19;25.00;64.80
74171;DHT22;62526;50.948;6.590;2022-09-13T16:34:46;24.90;66.30
74171;DHT22;62526;50.948;6.590;2022-09-13T16:37:15;24.80;67.00
74171;DHT22;62526;50.948;6.590;2022-09-13T16:39:41;24.60;68.00
74171;DHT22;62526;50.948;6.590;2022-09-13T16:42:07;24.50;68.80